Time;durP1;ratioP1;P1;durP2;ratioP2;P2;SDS_P1;SDS_P2;PMS_P1;PMS_P2;Temp;Humidity;BMP_temperature;BMP_pressure;BME280_temperature;BME280_humidity;BME280_pressure;Samples;Min_cycle;Max_cycle;Signal;HPM_P1;HPM_P2
2022/03/05 00:00:30;;;;;;;;;53.00;38.75;;;;;11.06;74.50;101637.84;5018673;28;45338;-69
2022/03/05 00:02:56;;;;;;;;;53.50;37.25;;;;;11.09;74.51;101636.91;5016454;28;45415;-69
2022/03/05 00:05:21;;;;;;;;;62.50;39.75;;;;;11.09;74.51;101635.16;5015950;28;45609;-70
2022/03/05 00:07:47;;;;;;;;;54.75;39.00;;;;;11.11;74.45;101646.47;5016377;28;45348;-69
2022/03/05 00:10:12;;;;;;;;;48.75;36.50;;;;;11.11;74.46;101638.59;5017141;28;45408;-69
2022/03/05 00:12:37;;;;;;;;;58.75;41.25;;;;;11.13;74.34;101635.94;5018270;28;45325;-69
2022/03/05 00:15:04;;;;;;;;;53.25;41.50;;;;;11.12;74.15;101629.81;5016632;28;45410;-70
2022/03/05 00:17:29;;;;;;;;;58.00;41.25;;;;;11.11;74.49;101635.94;5013847;28;46261;-69
2022/03/05 00:19:54;;;;;;;;;58.25;42.00;;;;;11.09;74.15;101642.19;5016063;28;45486;-69
2022/03/05 00:22:20;;;;;;;;;49.25;39.75;;;;;11.04;74.16;101633.56;5016010;28;45390;-69
2022/03/05 00:24:46;;;;;;;;;54.00;37.25;;;;;10.95;74.02;101635.56;5005026;28;45442;-69
2022/03/05 00:27:11;;;;;;;;;54.75;38.75;;;;;10.86;74.24;101633.22;5016410;28;46038;-69
2022/03/05 00:29:36;;;;;;;;;54.75;40.75;;;;;10.78;74.46;101635.22;5015398;28;45682;-69
2022/03/05 00:32:02;;;;;;;;;56.75;38.50;;;;;10.71;74.71;101634.53;5015831;28;45532;-69
2022/03/05 00:34:28;;;;;;;;;55.50;41.00;;;;;10.68;74.94;101634.59;5015736;28;45556;-69
2022/03/05 00:36:53;;;;;;;;;60.25;40.75;;;;;10.63;74.89;101633.88;5019312;28;45994;-69
2022/03/05 00:39:18;;;;;;;;;61.50;44.00;;;;;10.56;74.91;101634.97;5017243;28;45304;-69
2022/03/05 00:41:44;;;;;;;;;55.50;39.25;;;;;10.52;75.18;101629.84;5016295;28;45437;-69
2022/03/05 00:44:09;;;;;;;;;50.50;39.25;;;;;10.51;75.49;101630.75;5013956;28;47251;-69
2022/03/05 00:46:35;;;;;;;;;54.25;38.50;;;;;10.50;75.49;101634.28;5011966;28;46042;-69
2022/03/05 00:49:00;;;;;;;;;55.75;40.50;;;;;10.51;75.44;101631.59;5015044;28;45558;-69
2022/03/05 00:51:25;;;;;;;;;60.50;38.75;;;;;10.53;75.62;101629.78;5013311;28;45530;-69
2022/03/05 00:53:51;;;;;;;;;53.75;39.25;;;;;10.52;75.67;101625.44;5014333;28;45456;-69
2022/03/05 00:56:16;;;;;;;;;59.25;41.75;;;;;10.52;75.43;101628.06;5011753;28;45698;-68
2022/03/05 00:58:42;;;;;;;;;56.50;41.00;;;;;10.51;75.92;101625.50;5012012;28;45281;-69
2022/03/05 01:01:07;;;;;;;;;45.50;39.50;;;;;10.58;75.55;101627.88;5015435;28;46003;-69
2022/03/05 01:03:33;;;;;;;;;47.25;36.00;;;;;10.56;75.19;101629.72;5016735;28;45460;-69
2022/03/05 01:05:58;;;;;;;;;59.00;41.75;;;;;10.45;74.99;101634.41;5012490;28;48982;-69
2022/03/05 01:08:23;;;;;;;;;48.00;37.50;;;;;10.33;74.63;101629.47;5012287;28;45367;-69
2022/03/05 01:10:49;;;;;;;;;40.00;27.25;;;;;10.23;75.24;101627.97;5012125;28;45418;-69
2022/03/05 01:13:14;;;;;;;;;54.00;38.50;;;;;10.12;75.13;101626.50;5012765;28;45286;-69
2022/03/05 01:15:40;;;;;;;;;54.75;38.25;;;;;10.01;75.76;101627.69;5015367;28;45894;-69
2022/03/05 01:18:05;;;;;;;;;50.25;37.75;;;;;9.93;75.30;101620.88;5012465;28;45313;-69
2022/03/05 01:20:30;;;;;;;;;42.75;36.00;;;;;9.86;75.72;101621.94;5011999;28;45435;-69
2022/03/05 01:22:56;;;;;;;;;55.75;39.50;;;;;9.81;76.03;101626.44;5011923;28;45485;-69
2022/03/05 01:25:21;;;;;;;;;44.75;37.50;;;;;9.74;76.08;101624.03;5011664;28;46299;-69
2022/03/05 01:27:47;;;;;;;;;44.25;37.75;;;;;9.70;76.81;101625.00;5016251;28;45525;-69
2022/03/05 01:30:12;;;;;;;;;55.50;41.25;;;;;9.68;76.82;101622.41;5011992;28;45369;-69
2022/03/05 01:32:38;;;;;;;;;55.00;40.00;;;;;9.67;76.85;101625.94;5013977;28;45313;-69
2022/03/05 01:35:04;;;;;;;;;55.50;36.75;;;;;9.61;76.99;101619.09;5010241;28;46988;-69
2022/03/05 01:37:29;;;;;;;;;49.75;38.25;;;;;9.60;76.65;101622.59;5014798;28;45480;-69
2022/03/05 01:39:55;;;;;;;;;54.00;37.75;;;;;9.55;76.97;101619.25;5015183;28;45614;-69
2022/03/05 01:42:21;;;;;;;;;52.50;38.00;;;;;9.47;77.25;101612.44;5012464;28;45706;-68
2022/03/05 01:44:46;;;;;;;;;39.00;33.00;;;;;9.45;77.20;101623.00;5011609;28;46161;-69
2022/03/05 01:47:12;;;;;;;;;53.50;34.75;;;;;9.39;77.54;101620.50;5011406;28;45624;-69
2022/03/05 01:49:37;;;;;;;;;50.00;35.50;;;;;9.34;77.83;101620.63;5011499;28;45522;-69
2022/03/05 01:52:03;;;;;;;;;46.25;35.75;;;;;9.32;77.94;101618.91;5013985;28;45490;-69
2022/03/05 01:54:29;;;;;;;;;51.00;35.75;;;;;9.29;77.96;101618.97;5013895;28;46283;-69
2022/03/05 01:56:55;;;;;;;;;47.50;37.50;;;;;9.24;78.16;101616.50;5010179;28;45956;-69
2022/03/05 01:59:21;;;;;;;;;44.00;35.25;;;;;9.21;78.64;101610.44;5011431;28;45514;-69
2022/03/05 02:01:46;;;;;;;;;50.00;37.50;;;;;9.17;78.89;101616.66;5014326;28;45503;-69
2022/03/05 02:04:12;;;;;;;;;45.25;36.50;;;;;9.14;78.51;101621.09;5012540;28;46414;-69
2022/03/05 02:06:37;;;;;;;;;49.25;36.25;;;;;9.11;78.98;101621.13;5014045;28;45499;-69
2022/03/05 02:09:03;;;;;;;;;49.25;35.50;;;;;9.08;78.74;101629.09;5014798;28;45394;-69
2022/03/05 02:11:29;;;;;;;;;49.25;35.50;;;;;9.07;78.73;101624.72;5010900;28;45378;-69
2022/03/05 02:13:55;;;;;;;;;36.25;26.75;;;;;9.04;78.95;101634.44;5011064;28;45416;-69
2022/03/05 02:16:22;;;;;;;;;44.50;35.75;;;;;9.02;79.01;101625.72;4994106;28;45480;-68
2022/03/05 02:18:49;;;;;;;;;35.50;30.25;;;;;9.01;79.24;101621.38;5015807;28;45332;-69
2022/03/05 02:21:15;;;;;;;;;37.50;31.50;;;;;8.97;78.98;101623.19;5011849;28;45210;-69
2022/03/05 02:23:40;;;;;;;;;37.75;30.25;;;;;8.98;79.52;101618.81;5010650;28;46097;-69
2022/03/05 02:26:05;;;;;;;;;50.75;35.25;;;;;8.96;79.62;101616.25;5010301;28;45438;-69
2022/03/05 02:28:33;;;;;;;;;41.25;32.50;;;;;8.93;79.56;101608.47;5011000;28;45416;-68
2022/03/05 02:30:59;;;;;;;;;40.25;34.00;;;;;8.91;80.00;101614.63;5014314;28;45523;-69
2022/03/05 02:33:25;;;;;;;;;44.50;32.75;;;;;8.87;80.21;101619.06;5012390;28;46194;-69
2022/03/05 02:35:51;;;;;;;;;46.75;33.00;;;;;8.86;80.46;101623.44;5011205;28;45986;-69
2022/03/05 02:38:19;;;;;;;;;42.50;32.00;;;;;8.86;80.42;101623.44;5010736;28;45536;-69
2022/03/05 02:40:45;;;;;;;;;38.50;34.50;;;;;8.89;80.88;101614.66;5012641;28;45465;-69
2022/03/05 02:43:11;;;;;;;;;45.75;26.50;;;;;8.91;80.63;101612.84;5011717;28;46369;-68
2022/03/05 02:45:37;;;;;;;;;45.00;33.00;;;;;8.99;80.86;101620.56;5013639;28;45543;-69
2022/03/05 02:48:05;;;;;;;;;46.25;35.00;;;;;9.04;80.52;101616.09;5015630;28;45341;-69
2022/03/05 02:50:31;;;;;;;;;39.00;30.00;;;;;9.09;80.34;101616.84;5010665;28;45475;-69
2022/03/05 02:52:56;;;;;;;;;42.00;31.50;;;;;9.11;80.37;101608.03;5010775;28;45510;-69
2022/03/05 02:55:22;;;;;;;;;46.75;28.50;;;;;9.15;80.01;101614.94;5009733;28;45426;-69
2022/03/05 02:57:48;;;;;;;;;42.75;30.00;;;;;9.21;80.25;101611.31;5015190;28;45361;-68
2022/03/05 03:00:13;;;;;;;;;32.50;29.75;;;;;9.28;80.15;101610.25;5011119;28;45310;-69
2022/03/05 03:02:39;;;;;;;;;41.25;35.00;;;;;9.35;80.07;101608.38;5013733;28;45226;-69
2022/03/05 03:05:05;;;;;;;;;57.25;36.50;;;;;9.41;80.19;101602.97;5010221;28;45690;-69
2022/03/05 03:07:30;;;;;;;;;40.25;36.00;;;;;9.47;79.73;101602.81;5009877;28;45306;-69
2022/03/05 03:09:56;;;;;;;;;39.75;35.75;;;;;9.52;79.86;101606.19;5013702;28;45442;-69
2022/03/05 03:12:22;;;;;;;;;47.50;34.00;;;;;9.57;79.59;101603.47;5011608;28;47024;-69
2022/03/05 03:14:47;;;;;;;;;42.50;31.25;;;;;9.58;79.35;101605.19;5010434;28;45246;-69
2022/03/05 03:17:13;;;;;;;;;46.00;36.25;;;;;9.62;79.18;101612.94;5010262;28;45526;-68
2022/03/05 03:19:38;;;;;;;;;42.50;36.00;;;;;9.64;79.21;101608.50;5010198;28;45469;-69
2022/03/05 03:22:03;;;;;;;;;44.00;35.25;;;;;9.62;78.91;101605.06;5012378;28;46446;-69
2022/03/05 03:24:29;;;;;;;;;36.25;34.50;;;;;9.63;78.93;101598.91;5011862;28;45345;-69
2022/03/05 03:26:54;;;;;;;;;51.50;37.25;;;;;9.64;78.70;101608.50;5010558;28;45447;-69
2022/03/05 03:29:19;;;;;;;;;40.25;33.25;;;;;9.62;78.54;101607.69;5009999;28;45581;-69
2022/03/05 03:31:44;;;;;;;;;44.33;36.00;;;;;9.60;78.51;101613.84;5012354;28;56357;-69
2022/03/05 03:34:10;;;;;;;;;54.50;37.25;;;;;9.55;78.66;101608.75;5010662;28;45508;-69
2022/03/05 03:36:35;;;;;;;;;44.25;35.50;;;;;9.51;78.30;101608.84;5013321;28;47941;-68
2022/03/05 03:39:01;;;;;;;;;52.50;37.00;;;;;9.51;78.60;101619.34;5010205;28;45379;-68
2022/03/05 03:41:26;;;;;;;;;45.00;38.00;;;;;9.49;78.60;101619.38;5007513;28;45365;-69
2022/03/05 03:43:52;;;;;;;;;54.25;38.00;;;;;9.46;78.87;101622.09;5010071;28;45343;-69
2022/03/05 03:46:17;;;;;;;;;47.33;39.00;;;;;9.42;78.98;101617.81;5010142;28;45545;-69
2022/03/05 03:48:43;;;;;;;;;56.75;40.00;;;;;9.39;78.85;101615.25;5013741;28;45559;-68
2022/03/05 03:51:08;;;;;;;;;51.50;37.75;;;;;9.38;79.22;101621.41;5010360;28;45471;-68
2022/03/05 03:53:33;;;;;;;;;53.50;39.50;;;;;9.33;79.11;101623.25;5009292;28;45647;-68
2022/03/05 03:55:59;;;;;;;;;54.00;39.75;;;;;9.24;79.08;101618.22;5009796;28;45554;-68
2022/03/05 03:58:24;;;;;;;;;46.75;38.00;;;;;9.19;79.07;101614.84;4991941;28;45436;-68
2022/03/05 04:00:49;;;;;;;;;62.75;40.00;;;;;9.12;79.14;101620.25;5013487;28;46314;-69
2022/03/05 04:03:15;;;;;;;;;53.50;37.75;;;;;9.07;79.27;101619.47;5013865;28;45460;-68
2022/03/05 04:05:40;;;;;;;;;50.75;37.75;;;;;9.03;79.41;101611.72;5009498;28;45617;-68
2022/03/05 04:10:49;;;;;;;;;51.25;37.50;;;;;8.96;79.64;101611.00;5009273;28;45313;-68
2022/03/05 04:13:15;;;;;;;;;59.00;40.25;;;;;8.94;79.99;101612.81;5010351;28;45305;-68
2022/03/05 04:15:40;;;;;;;;;49.00;36.75;;;;;8.92;79.70;101611.94;5013106;28;45552;-68
2022/03/05 04:18:06;;;;;;;;;41.25;37.00;;;;;8.89;79.84;101614.66;5010474;28;45454;-68
2022/03/05 04:20:32;;;;;;;;;57.25;38.25;;;;;8.85;80.07;101610.38;5010909;28;46237;-68
2022/03/05 04:22:58;;;;;;;;;51.75;37.75;;;;;8.83;79.96;101610.41;5012343;28;45317;-68
2022/03/05 04:25:24;;;;;;;;;66.00;41.50;;;;;8.81;80.27;101611.31;5012906;28;45467;-68
2022/03/05 04:27:49;;;;;;;;;54.50;39.50;;;;;8.75;79.95;101614.09;5017306;28;45439;-68
2022/03/05 04:30:14;;;;;;;;;59.50;37.25;;;;;8.74;80.23;101612.38;5013817;28;46267;-69
2022/03/05 04:32:40;;;;;;;;;48.00;36.50;;;;;8.72;80.42;101619.38;5011670;28;45365;-68
2022/03/05 04:35:06;;;;;;;;;50.00;39.00;;;;;8.70;80.18;101615.94;5013107;28;48153;-68
2022/03/05 04:37:31;;;;;;;;;48.00;35.50;;;;;8.72;80.33;101622.00;5011965;28;45432;-68
2022/03/05 04:39:56;;;;;;;;;46.00;38.25;;;;;8.72;80.37;101624.63;5015656;28;45437;-68
2022/03/05 04:42:22;;;;;;;;;43.25;35.75;;;;;8.72;80.45;101620.28;5013937;28;45198;-68
2022/03/05 04:44:47;;;;;;;;;49.25;36.75;;;;;8.72;80.70;101619.38;5012768;28;45376;-68
2022/03/05 04:47:12;;;;;;;;;47.50;38.75;;;;;8.72;80.75;101622.91;5012888;28;45444;-68
2022/03/05 04:49:38;;;;;;;;;47.75;34.50;;;;;8.74;80.43;101622.84;5012215;28;46067;-68
2022/03/05 04:52:03;;;;;;;;;47.00;32.75;;;;;8.74;80.43;101620.22;5014285;28;45424;-68
2022/03/05 04:54:30;;;;;;;;;45.50;37.00;;;;;8.76;80.25;101621.91;5014758;28;45282;-68
2022/03/05 04:56:57;;;;;;;;;57.25;40.00;;;;;8.78;80.75;101624.53;5012784;28;45292;-68
2022/03/05 04:59:22;;;;;;;;;52.75;38.25;;;;;8.79;80.67;101624.47;5012008;28;46194;-69
2022/03/05 05:01:48;;;;;;;;;46.75;37.50;;;;;8.82;80.60;101621.81;5011935;28;45351;-68
2022/03/05 05:04:13;;;;;;;;;55.00;38.67;;;;;8.84;80.30;101624.38;5011765;28;60369;-68
2022/03/05 05:06:38;;;;;;;;;49.00;36.00;;;;;8.87;80.44;101621.69;5016176;28;45319;-68
2022/03/05 05:09:04;;;;;;;;;51.50;39.50;;;;;8.90;80.47;101621.63;5012225;28;46159;-68
2022/03/05 05:11:30;;;;;;;;;55.25;41.00;;;;;8.92;80.09;101622.44;5012106;28;45538;-68
2022/03/05 05:13:55;;;;;;;;;54.50;42.00;;;;;8.92;79.48;101630.31;5012138;28;45391;-68
2022/03/05 05:16:20;;;;;;;;;46.00;34.67;;;;;8.88;79.69;101624.28;5011951;28;45560;-68
2022/03/05 05:21:29;;;;;;;;;55.25;39.75;;;;;8.84;79.74;101627.88;5016044;28;45543;-68
2022/03/05 05:23:55;;;;;;;;;49.50;36.00;;;;;8.84;79.34;101633.09;5012869;28;45384;-68
2022/03/05 05:26:21;;;;;;;;;46.50;39.75;;;;;8.82;79.65;101634.91;5011846;28;45570;-68
2022/03/05 05:28:46;;;;;;;;;63.50;41.75;;;;;8.82;79.45;101641.88;5011284;28;54622;-68
2022/03/05 05:31:12;;;;;;;;;44.50;39.25;;;;;8.79;79.41;101641.97;4994717;28;45515;-68
2022/03/05 05:33:39;;;;;;;;;54.50;40.00;;;;;8.77;79.35;101643.72;5014319;28;45615;-68
2022/03/05 05:36:05;;;;;;;;;39.25;33.50;;;;;8.74;79.19;101642.06;5011832;28;45467;-68
2022/03/05 05:38:31;;;;;;;;;55.00;42.50;;;;;8.67;79.10;101648.31;5011802;28;45931;-68
2022/03/05 05:40:56;;;;;;;;;58.75;39.50;;;;;8.62;79.10;101652.81;5011480;28;46000;-68
2022/03/05 05:43:22;;;;;;;;;55.00;39.00;;;;;8.59;78.82;101656.31;5011296;28;45449;-68
2022/03/05 05:45:47;;;;;;;;;57.00;42.25;;;;;8.57;79.03;101650.28;5016651;28;45467;-68
2022/03/05 05:48:12;;;;;;;;;52.75;40.00;;;;;8.57;79.26;101654.66;5011950;28;45997;-68
2022/03/05 05:50:38;;;;;;;;;53.50;37.50;;;;;8.56;78.78;101645.03;5010748;28;50473;-68
2022/03/05 05:53:03;;;;;;;;;60.25;40.00;;;;;8.55;79.11;101657.28;5011456;28;45388;-68
2022/03/05 05:55:29;;;;;;;;;56.00;37.50;;;;;8.55;79.00;101649.41;5011221;28;45485;-68
2022/03/05 05:57:54;;;;;;;;;47.50;38.25;;;;;8.50;78.61;101643.41;5014987;28;47021;-68
2022/03/05 06:00:19;;;;;;;;;52.75;39.75;;;;;8.53;78.85;101653.84;5012456;28;45531;-68
2022/03/05 06:02:45;;;;;;;;;51.00;37.75;;;;;8.53;78.76;101661.69;5010375;28;45392;-69
2022/03/05 06:05:10;;;;;;;;;53.00;37.75;;;;;8.54;79.01;101659.94;5013796;28;45400;-68
2022/03/05 06:07:36;;;;;;;;;54.75;38.00;;;;;8.53;78.97;101653.84;5010990;28;45324;-68
2022/03/05 06:10:01;;;;;;;;;54.75;41.00;;;;;8.50;78.57;101656.50;4996141;28;45575;-68
2022/03/05 06:12:26;;;;;;;;;51.00;40.00;;;;;8.47;78.95;101653.97;5013139;28;45639;-68
2022/03/05 06:14:51;;;;;;;;;51.50;38.50;;;;;8.48;79.23;101665.31;5011348;28;45372;-68
2022/03/05 06:17:17;;;;;;;;;65.00;43.50;;;;;8.46;78.98;101654.88;4992965;28;46619;-68
2022/03/05 06:19:44;;;;;;;;;48.67;39.33;;;;;8.48;79.04;101673.16;5010011;28;59220;-68
2022/03/05 06:22:09;;;;;;;;;55.50;43.50;;;;;8.46;78.85;101667.97;5013019;28;45461;-68
2022/03/05 06:24:34;;;;;;;;;54.25;41.00;;;;;8.44;79.08;101674.09;5014030;28;45367;-68
2022/03/05 06:27:00;;;;;;;;;57.67;42.00;;;;;8.42;78.94;101681.13;5015174;28;49486;-68
2022/03/05 06:29:25;;;;;;;;;48.00;39.00;;;;;8.40;79.19;101677.66;5010184;28;55297;-68
2022/03/05 06:31:51;;;;;;;;;54.25;43.00;;;;;8.36;79.16;101676.88;5011151;28;45252;-68
2022/03/05 06:34:16;;;;;;;;;52.25;41.25;;;;;8.33;78.92;101683.00;5010987;28;45467;-68
2022/03/05 06:36:42;;;;;;;;;48.75;40.75;;;;;8.33;78.99;101683.00;5014449;28;46323;-69
2022/03/05 06:39:07;;;;;;;;;52.00;40.50;;;;;8.36;79.16;101684.75;5011573;28;45479;-69
2022/03/05 06:41:32;;;;;;;;;54.67;40.67;;;;;8.40;79.09;101680.28;5010718;28;45303;-69
2022/03/05 06:43:58;;;;;;;;;63.00;41.00;;;;;8.44;79.00;101687.19;5009565;28;45612;-69
2022/03/05 06:46:23;;;;;;;;;57.00;40.25;;;;;8.48;79.02;101686.25;5010764;28;47186;-69
2022/03/05 06:48:48;;;;;;;;;57.33;43.33;;;;;8.54;78.75;101688.75;5014340;28;49782;-69
2022/03/05 06:51:14;;;;;;;;;57.50;43.00;;;;;8.59;78.77;101686.91;5011226;28;45341;-69
2022/03/05 06:53:39;;;;;;;;;57.00;42.25;;;;;8.66;78.54;101693.75;5010942;28;45523;-69
2022/03/05 06:56:04;;;;;;;;;63.00;40.33;;;;;8.74;78.73;101701.47;5012875;28;47146;-69
2022/03/05 06:58:30;;;;;;;;;57.25;40.50;;;;;8.82;78.59;101696.91;5010451;28;45396;-70
2022/03/05 07:00:55;;;;;;;;;50.75;42.25;;;;;8.92;78.35;101697.59;5014414;28;45404;-69
2022/03/05 07:03:20;;;;;;;;;62.00;44.00;;;;;9.00;77.95;101696.56;5014732;28;45470;-69
2022/03/05 07:05:45;;;;;;;;;52.33;40.00;;;;;9.09;77.27;101706.00;5009976;28;56048;-69
2022/03/05 07:08:11;;;;;;;;;57.00;44.00;;;;;9.18;77.21;101697.91;5010254;28;48479;-70
2022/03/05 07:10:36;;;;;;;;;46.50;38.25;;;;;9.29;76.92;101708.16;5010162;28;45561;-70
2022/03/05 07:13:01;;;;;;;;;55.33;43.67;;;;;9.36;76.68;101694.03;5012864;28;48335;-69
2022/03/05 07:15:27;;;;;;;;;53.25;39.25;;;;;9.48;75.95;101699.00;5011641;28;45305;-70
2022/03/05 07:17:53;;;;;;;;;55.00;40.50;;;;;9.59;76.13;101696.97;5010014;28;45345;-70
2022/03/05 07:20:19;;;;;;;;;64.00;42.25;;;;;9.75;75.69;101691.38;5010053;28;45473;-70
2022/03/05 07:22:45;;;;;;;;;55.50;42.25;;;;;9.88;75.38;101695.44;5010160;28;45767;-70
2022/03/05 07:25:12;;;;;;;;;63.25;43.75;;;;;10.06;74.99;101697.56;5011479;28;45338;-70
2022/03/05 07:27:38;;;;;;;;;60.50;43.25;;;;;10.25;74.30;101705.91;5013624;28;45337;-70
2022/03/05 07:30:04;;;;;;;;;54.00;39.00;;;;;10.66;74.56;101694.28;5010480;28;45372;-71
2022/03/05 07:32:29;;;;;;;;;52.50;40.50;;;;;11.23;73.44;101701.38;5008950;28;45443;-70
2022/03/05 07:34:55;;;;;;;;;54.50;40.75;;;;;11.78;72.57;101706.66;5012714;28;45407;-70
2022/03/05 07:37:20;;;;;;;;;52.25;33.75;;;;;12.41;71.41;101713.34;5010103;28;45314;-70
2022/03/05 07:39:45;;;;;;;;;56.75;41.25;;;;;12.90;69.81;101714.25;5014131;28;45356;-70
2022/03/05 07:42:11;;;;;;;;;55.00;42.00;;;;;13.35;68.42;101707.28;5010566;28;45600;-69
2022/03/05 07:44:36;;;;;;;;;54.00;41.00;;;;;13.92;67.50;101711.16;5009171;28;46069;-70
2022/03/05 07:47:03;;;;;;;;;51.00;38.00;;;;;14.49;66.67;101712.28;5009621;28;45248;-69
2022/03/05 07:49:28;;;;;;;;;52.25;39.25;;;;;15.11;65.17;101717.41;5009776;28;45448;-70
2022/03/05 07:51:56;;;;;;;;;54.75;40.50;;;;;16.15;63.79;101711.53;5014068;28;45360;-70
2022/03/05 07:54:21;;;;;;;;;51.25;40.50;;;;;16.63;61.93;101717.88;5012380;28;46153;-70
2022/03/05 07:56:47;;;;;;;;;52.25;41.25;;;;;17.71;60.64;101711.94;5012990;28;45321;-70
2022/03/05 07:59:12;;;;;;;;;56.00;39.25;;;;;18.32;58.35;101712.81;5012963;28;45401;-70
2022/03/05 08:01:37;;;;;;;;;49.75;38.25;;;;;18.79;56.79;101714.44;5013125;28;45451;-70
2022/03/05 08:04:03;;;;;;;;;50.33;39.33;;;;;18.21;54.82;101718.78;5015220;28;51660;-72
2022/03/05 08:06:28;;;;;;;;;56.00;41.25;;;;;17.55;55.33;101715.56;5017546;28;49411;-70
2022/03/05 08:08:56;;;;;;;;;52.00;40.00;;;;;17.50;54.75;101713.16;5014428;28;45406;-71
2022/03/05 08:11:22;;;;;;;;;49.00;39.00;;;;;16.92;54.07;101719.88;5017631;28;45798;-72
2022/03/05 08:13:47;;;;;;;;;51.50;38.75;;;;;16.38;54.44;101721.81;5012013;28;46134;-71
2022/03/05 08:16:12;;;;;;;;;56.75;39.25;;;;;16.01;54.67;101725.47;5013670;28;45459;-71
2022/03/05 08:18:37;;;;;;;;;54.33;42.33;;;;;15.58;54.27;101721.38;5014711;28;47027;-71
2022/03/05 08:21:03;;;;;;;;;50.00;38.33;;;;;15.29;55.06;101725.41;5015025;28;51357;-71
2022/03/05 08:23:28;;;;;;;;;52.00;40.25;;;;;15.09;55.46;101724.56;5016661;28;46112;-71
2022/03/05 08:25:53;;;;;;;;;49.00;36.50;;;;;15.02;55.70;101723.09;5013877;28;45508;-71
2022/03/05 08:28:21;;;;;;;;;50.00;37.75;;;;;14.99;55.00;101727.72;5012541;28;45572;-71
2022/03/05 08:30:47;;;;;;;;;50.00;37.00;;;;;14.99;55.36;101725.91;5005820;28;46023;-71
2022/03/05 08:33:12;;;;;;;;;57.50;40.75;;;;;15.07;54.92;101725.53;5016931;28;46941;-71
2022/03/05 08:35:37;;;;;;;;;52.50;37.50;;;;;15.04;55.30;101733.66;5013053;28;45499;-71
2022/03/05 08:38:04;;;;;;;;;52.25;38.00;;;;;14.96;54.49;101727.84;5016472;28;45375;-71
2022/03/05 08:40:29;;;;;;;;;54.00;39.00;;;;;14.90;55.75;101721.03;5021504;28;47000;-71
2022/03/05 08:42:55;;;;;;;;;51.75;40.00;;;;;15.14;54.79;101727.00;5024628;28;45426;-71
2022/03/05 08:45:20;;;;;;;;;53.25;39.00;;;;;15.38;54.14;101727.63;5013022;28;45354;-72
2022/03/05 08:47:46;;;;;;;;;50.25;37.00;;;;;15.51;53.55;101731.44;5017274;28;45517;-71
2022/03/05 08:50:11;;;;;;;;;52.50;39.25;;;;;15.56;53.63;101726.78;5020452;28;45462;-71
2022/03/05 08:52:37;;;;;;;;;48.75;40.00;;;;;15.61;53.48;101729.19;5024117;28;46209;-71
2022/03/05 08:55:11;;;;;;;;;46.25;37.25;;;;;15.75;53.60;101728.53;5025190;28;45393;-72
2022/03/05 08:57:37;;;;;;;;;44.00;36.50;;;;;16.00;53.17;101729.06;5014925;28;45631;-71
2022/03/05 09:00:05;;;;;;;;;59.75;44.25;;;;;16.27;52.60;101725.94;5012860;28;45396;-71
2022/03/05 09:02:31;;;;;;;;;50.00;38.25;;;;;16.39;52.50;101728.84;5012513;28;46183;-71
2022/03/05 09:04:56;;;;;;;;;50.00;41.25;;;;;16.65;52.56;101724.84;5014251;28;45826;-71
2022/03/05 09:07:22;;;;;;;;;53.00;39.00;;;;;16.99;52.21;101725.72;5019758;28;45508;-71
2022/03/05 09:09:47;;;;;;;;;65.50;49.25;;;;;17.35;51.04;101719.34;5025539;28;48308;-71
2022/03/05 09:12:12;;;;;;;;;52.50;40.25;;;;;17.90;51.18;101716.22;5016866;28;46929;-72
2022/03/05 09:14:38;;;;;;;;;54.25;40.25;;;;;18.32;50.82;101720.81;5022608;28;45384;-72
2022/03/05 09:17:04;;;;;;;;;50.75;36.00;;;;;18.63;49.63;101711.81;5012591;28;46871;-71
2022/03/05 09:19:30;;;;;;;;;52.25;41.75;;;;;19.01;49.56;101714.81;5010588;28;45578;-71
2022/03/05 09:21:55;;;;;;;;;53.25;42.50;;;;;19.38;50.27;101723.16;5013860;28;46196;-71
2022/03/05 09:24:21;;;;;;;;;51.25;39.25;;;;;20.16;48.37;101723.38;5015001;28;45305;-72
2022/03/05 09:26:46;;;;;;;;;51.00;39.50;;;;;20.73;48.75;101722.16;5015484;28;45446;-71
2022/03/05 09:29:11;;;;;;;;;46.00;35.75;;;;;22.21;47.95;101710.47;5015535;28;46920;-71
2022/03/05 09:31:39;;;;;;;;;51.50;40.25;;;;;22.80;46.15;101715.66;5015788;28;46285;-69
2022/03/05 09:34:04;;;;;;;;;55.75;40.50;;;;;25.01;45.75;101715.09;5017255;28;45319;-71
2022/03/05 09:36:31;;;;;;;;;51.75;40.25;;;;;26.51;43.53;101706.75;5000467;28;45268;-72
2022/03/05 09:38:56;;;;;;;;;47.00;35.25;;;;;28.84;42.22;101714.88;5016300;28;45498;-72
2022/03/05 09:41:22;;;;;;;;;49.25;40.75;;;;;30.63;39.67;101708.03;5010638;28;45475;-72
2022/03/05 09:43:47;;;;;;;;;47.25;39.25;;;;;31.77;36.55;101720.25;5012779;28;45479;-72
2022/03/05 09:46:17;;;;;;;;;45.25;36.25;;;;;33.03;36.44;101722.31;5012798;28;45404;-72
2022/03/05 09:48:43;;;;;;;;;43.25;37.00;;;;;34.25;34.73;101715.06;5013052;28;45372;-72
2022/03/05 09:51:08;;;;;;;;;49.25;39.25;;;;;35.37;32.86;101709.38;5013447;28;47268;-72
2022/03/05 09:53:34;;;;;;;;;39.75;32.50;;;;;36.05;31.58;101723.00;5009821;28;45356;-72
2022/03/05 09:55:59;;;;;;;;;46.00;36.75;;;;;36.65;30.48;101722.94;5004737;28;45335;-72
2022/03/05 09:58:25;;;;;;;;;46.75;36.25;;;;;36.92;29.94;101721.84;5013082;28;45412;-72
2022/03/05 10:00:51;;;;;;;;;45.50;35.25;;;;;36.95;29.11;101713.19;5012649;28;45578;-72
2022/03/05 10:03:17;;;;;;;;;44.75;36.00;;;;;36.94;28.57;101713.41;5010414;28;45543;-70
2022/03/05 10:05:42;;;;;;;;;45.25;36.75;;;;;36.73;27.66;101718.06;5012459;28;45843;-69
2022/03/05 10:08:08;;;;;;;;;54.25;40.00;;;;;36.44;27.43;101722.16;5012878;28;45510;-70
2022/03/05 10:10:45;;;;;;;;;56.50;44.00;;;;;36.05;26.76;101723.84;5009920;28;46097;-70
2022/03/05 10:13:18;;;;;;;;;36.75;30.25;;;;;35.67;26.30;101712.63;5002948;28;45729;-70
2022/03/05 10:15:44;;;;;;;;;40.75;33.50;;;;;35.23;26.61;101713.94;5011020;28;45789;-71
2022/03/05 10:18:10;;;;;;;;;42.25;33.25;;;;;35.04;26.62;101709.28;5020285;28;47365;-71
2022/03/05 10:20:43;;;;;;;;;43.25;34.75;;;;;34.83;26.60;101712.09;5013665;28;45495;-70
2022/03/05 10:23:11;;;;;;;;;39.75;34.50;;;;;34.28;26.55;101709.19;5012030;28;45855;-71
2022/03/05 10:25:47;;;;;;;;;46.50;37.00;;;;;33.77;26.86;101717.53;5011296;28;45414;-72
2022/03/05 10:28:20;;;;;;;;;42.25;34.25;;;;;33.26;25.78;101720.31;5012149;28;45583;-71
2022/03/05 10:30:51;;;;;;;;;39.75;33.25;;;;;32.76;26.30;101715.66;5011598;28;46318;-69
2022/03/05 10:33:35;;;;;;;;;44.50;35.25;;;;;32.60;26.54;101713.94;5009159;28;45751;-69
2022/03/05 10:36:06;;;;;;;;;42.00;33.00;;;;;32.41;27.06;101708.00;5009510;28;45692;-70
2022/03/05 10:39:08;;;;;;;;;46.50;35.75;;;;;32.14;27.51;101708.59;5010228;28;45710;-69
2022/03/05 10:41:36;;;;;;;;;47.00;37.75;;;;;31.64;27.29;101704.56;4908817;28;46392;-71
2022/03/05 10:44:11;;;;;;;;;44.75;35.50;;;;;30.88;27.26;101711.56;4907386;28;46221;-69
2022/03/05 10:47:00;;;;;;;;;41.75;34.25;;;;;30.26;28.44;101703.22;4912277;28;45391;-72
2022/03/05 10:49:28;;;;;;;;;42.25;36.25;;;;;29.79;27.78;101712.84;4911355;28;45612;-68
2022/03/05 10:52:02;;;;;;;;;43.25;33.75;;;;;29.31;28.84;101710.88;4911991;28;46540;-71
2022/03/05 10:54:29;;;;;;;;;43.00;34.75;;;;;28.76;29.79;101722.94;4911424;28;45570;-70
2022/03/05 10:57:13;;;;;;;;;40.25;33.25;;;;;28.08;28.05;101717.38;4909427;28;45663;-71
2022/03/05 10:59:42;;;;;;;;;42.00;34.50;;;;;27.56;28.81;101709.97;4916151;28;45742;-69
2022/03/05 11:02:09;;;;;;;;;41.50;35.25;;;;;27.39;29.08;101704.53;4914967;28;45869;-69
2022/03/05 11:04:35;;;;;;;;;45.75;37.00;;;;;27.39;29.31;101704.53;4914535;28;45847;-69
2022/03/05 11:07:01;;;;;;;;;49.00;40.00;;;;;27.45;29.77;101703.91;4925808;28;45477;-68
2022/03/05 11:09:29;;;;;;;;;48.50;36.50;;;;;27.35;29.97;101703.97;4912840;28;45586;-70
2022/03/05 11:11:55;;;;;;;;;42.25;35.25;;;;;27.10;29.86;101705.56;4917566;28;46172;-69
2022/03/05 11:14:21;;;;;;;;;46.00;36.75;;;;;26.71;30.11;101705.69;4919457;28;45445;-68